Time;durP1;ratioP1;P1;durP2;ratioP2;P2;SDS_P1;SDS_P2;PMS_P1;PMS_P2;Temp;Humidity;BMP_temperature;BMP_pressure;BME280_temperature;BME280_humidity;BME280_pressure;Samples;Min_cycle;Max_cycle;Signal;HPM_P1;HPM_P2
2021/07/09 00:06:09;;;;;;;8.07;4.53;;;16.80;99.90;;;;;;6710975;88;20777;-77
2021/07/09 00:16:17;;;;;;;6.25;3.78;;;16.80;99.90;;;;;;6711905;88;20355;-77
2021/07/09 00:26:18;;;;;;;9.10;4.35;;;16.80;99.90;;;;;;6711087;88;20210;-78
2021/07/09 00:36:19;;;;;;;6.68;3.80;;;17.00;99.90;;;;;;6711368;88;20215;-79
2021/07/09 00:46:50;;;;;;;7.75;3.80;;;17.10;99.90;;;;;;6710395;88;20201;-78
2021/07/09 00:56:50;;;;;;;7.30;3.70;;;17.10;99.90;;;;;;6708333;88;20527;-78
2021/07/09 01:06:51;;;;;;;10.27;3.83;;;17.00;99.90;;;;;;6710284;88;20256;-77
2021/07/09 01:16:52;;;;;;;7.15;4.28;;;16.90;99.90;;;;;;6711909;88;20221;-78
2021/07/09 01:26:53;;;;;;;11.52;4.50;;;16.90;99.90;;;;;;6711564;88;20329;-78
2021/07/09 01:37:12;;;;;;;8.02;5.25;;;17.10;99.90;;;;;;6711540;88;20342;-78
2021/07/09 01:47:13;;;;;;;11.70;5.37;;;17.00;99.90;;;;;;6694833;88;20292;-77
2021/07/09 01:57:13;;;;;;;14.67;7.77;;;17.00;99.90;;;;;;6693677;88;20230;-77
2021/07/09 02:07:15;;;;;;;12.55;7.43;;;16.90;99.90;;;;;;6706312;88;20257;-77
2021/07/09 02:17:18;;;;;;;18.50;10.68;;;16.80;99.90;;;;;;6709463;88;20185;-78
2021/07/09 02:27:19;;;;;;;18.87;10.23;;;16.70;99.90;;;;;;6708495;88;20191;-77
2021/07/09 02:37:19;;;;;;;19.85;12.90;;;16.80;99.90;;;;;;6707709;88;20302;-77
2021/07/09 02:47:20;;;;;;;24.20;14.40;;;16.60;99.90;;;;;;6709121;88;20203;-77
2021/07/09 02:57:20;;;;;;;20.62;13.32;;;16.60;99.90;;;;;;6707297;88;20225;-77
2021/07/09 03:07:21;;;;;;;21.08;13.68;;;16.60;99.90;;;;;;6708608;88;20223;-77
2021/07/09 03:17:22;;;;;;;28.07;16.10;;;16.50;99.90;;;;;;6707986;88;20652;-77
2021/07/09 03:27:22;;;;;;;29.80;16.80;;;16.50;99.90;;;;;;6708672;88;20533;-78
2021/07/09 03:37:23;;;;;;;26.17;17.73;;;16.60;99.90;;;;;;6715023;88;20246;-78
2021/07/09 03:47:23;;;;;;;29.65;17.95;;;16.50;99.90;;;;;;6712994;88;20724;-78
2021/07/09 03:57:24;;;;;;;33.97;19.27;;;16.60;99.90;;;;;;6714772;88;20190;-78
2021/07/09 04:07:24;;;;;;;33.30;20.10;;;16.60;99.90;;;;;;6712299;88;20201;-78
2021/07/09 04:17:25;;;;;;;39.63;22.50;;;16.60;99.90;;;;;;6714168;88;20228;-78
2021/07/09 04:27:26;;;;;;;34.47;21.80;;;16.50;99.90;;;;;;6708239;88;20208;-78
2021/07/09 04:37:26;;;;;;;39.95;22.77;;;16.50;99.90;;;;;;6705726;88;20306;-78
2021/07/09 04:47:27;;;;;;;38.88;23.87;;;16.50;99.90;;;;;;6706908;88;20195;-78
2021/07/09 04:57:27;;;;;;;40.58;24.35;;;16.60;99.90;;;;;;6706034;88;20198;-78
2021/07/09 05:07:28;;;;;;;36.53;23.33;;;16.60;99.90;;;;;;6704821;88;20729;-78
2021/07/09 05:17:28;;;;;;;40.45;25.88;;;16.70;99.90;;;;;;6705634;88;20202;-77
2021/07/09 05:27:31;;;;;;;42.83;23.92;;;16.80;99.90;;;;;;6703286;88;20208;-78
2021/07/09 05:37:32;;;;;;;36.65;23.05;;;16.90;99.90;;;;;;6714733;88;20177;-78
2021/07/09 05:47:33;;;;;;;32.25;22.00;;;17.00;99.90;;;;;;6710750;88;20273;-78
2021/07/09 05:57:33;;;;;;;34.53;21.70;;;17.10;99.90;;;;;;6709821;88;20206;-78
2021/07/09 06:07:34;;;;;;;30.42;20.65;;;17.20;99.90;;;;;;6705314;88;20633;-79
2021/07/09 06:17:35;;;;;;;29.70;19.05;;;17.50;99.90;;;;;;6705642;88;20380;-78
2021/07/09 06:27:35;;;;;;;32.15;19.52;;;17.50;99.90;;;;;;6705438;88;20214;-79
2021/07/09 06:37:37;;;;;;;30.50;20.42;;;17.60;99.90;;;;;;6702660;88;20212;-77
2021/07/09 06:47:38;;;;;;;33.38;22.02;;;17.70;99.90;;;;;;6704808;88;20272;-78
2021/07/09 06:57:39;;;;;;;35.47;21.98;;;17.90;99.90;;;;;;6707026;88;20726;-77
2021/07/09 07:07:39;;;;;;;34.58;23.70;;;18.00;99.90;;;;;;6699098;88;20253;-77
2021/07/09 07:17:40;;;;;;;39.47;25.17;;;18.00;99.90;;;;;;6700405;88;20215;-77
2021/07/09 07:27:41;;;;;;;36.80;24.02;;;18.10;99.90;;;;;;6699269;88;20198;-77
2021/07/09 07:37:42;;;;;;;40.25;24.95;;;18.20;99.90;;;;;;6698645;88;20199;-77
2021/07/09 07:47:43;;;;;;;43.10;28.40;;;18.20;99.90;;;;;;6707629;88;20284;-77
2021/07/09 07:57:44;;;;;;;41.77;27.27;;;18.40;99.90;;;;;;6700757;88;20190;-77
2021/07/09 08:07:45;;;;;;;38.25;26.25;;;18.70;99.90;;;;;;6692474;88;20389;-77
2021/07/09 08:17:45;;;;;;;42.90;28.62;;;19.20;99.90;;;;;;6698927;88;20295;-77
2021/07/09 08:27:46;;;;;;;45.17;30.77;;;19.10;99.90;;;;;;6697785;88;20170;-77
2021/07/09 08:37:46;;;;;;;51.50;34.30;;;19.40;99.90;;;;;;6701439;88;20731;-78
2021/07/09 08:47:48;;;;;;;37.17;23.37;;;19.40;99.90;;;;;;6702632;88;20309;-77
2021/07/09 08:57:49;;;;;;;31.52;19.98;;;19.00;99.90;;;;;;6697258;88;20202;-77
2021/07/09 09:08:04;;;;;;;43.13;24.45;;;18.50;99.90;;;;;;6702678;88;20287;-78
2021/07/09 09:18:26;;;;;;;63.22;29.45;;;17.70;99.90;;;;;;6704952;88;20201;-78
2021/07/09 09:28:27;;;;;;;53.08;26.67;;;17.00;99.90;;;;;;6712995;88;20839;-77
2021/07/09 09:38:30;;;;;;;50.63;26.50;;;16.80;99.90;;;;;;6704053;88;20191;-77
2021/07/09 09:48:49;;;;;;;58.38;29.02;;;16.80;99.90;;;;;;6698908;88;20163;-78
2021/07/09 09:59:10;;;;;;;44.40;23.35;;;16.90;99.90;;;;;;6708375;88;20216;-77
2021/07/09 10:09:15;;;;;;;34.88;19.48;;;17.10;99.90;;;;;;6710096;88;20323;-78
2021/07/09 10:19:19;;;;;;;;;;;17.40;99.90;;;;;;6720322;88;20290;-79
2021/07/09 10:29:23;;;;;;;31.58;18.27;;;17.70;99.90;;;;;;6710691;88;20086;-78
2021/07/09 10:39:39;;;;;;;27.03;18.67;;;18.30;99.90;;;;;;6708778;88;20226;-78
2021/07/09 10:49:53;;;;;;;33.50;21.10;;;19.50;99.90;;;;;;6707854;88;20212;-78
2021/07/09 11:00:22;;;;;;;35.42;23.40;;;19.90;99.90;;;;;;6694797;88;20312;-78
2021/07/09 11:11:01;;;;;;;33.63;21.77;;;21.00;99.90;;;;;;6708235;88;20370;-79
2021/07/09 11:21:02;;;;;;;28.23;19.05;;;21.30;99.90;;;;;;6711629;88;20200;-79
2021/07/09 11:31:02;;;;;;;19.12;13.70;;;21.10;99.90;;;;;;6709929;88;20281;-78
2021/07/09 11:41:08;;;;;;;14.52;10.07;;;21.30;99.90;;;;;;6705930;88;20195;-79
2021/07/09 11:51:09;;;;;;;14.63;8.48;;;21.80;99.90;;;;;;6707679;88;20212;-79
2021/07/09 12:01:18;;;;;;;10.20;7.03;;;21.80;99.90;;;;;;6703768;88;20197;-78
2021/07/09 12:11:18;;;;;;;12.88;7.65;;;21.90;99.90;;;;;;6703715;88;20651;-78
2021/07/09 12:21:19;;;;;;;11.27;6.35;;;21.90;99.90;;;;;;6702322;88;20269;-78
2021/07/09 12:31:20;;;;;;;11.30;7.30;;;22.10;99.90;;;;;;6701658;88;20187;-78
2021/07/09 12:41:28;;;;;;;12.87;6.93;;;22.30;99.90;;;;;;6701173;88;20216;-78
2021/07/09 12:51:37;;;;;;;10.95;7.35;;;22.40;99.90;;;;;;6702316;88;20581;-78
2021/07/09 13:01:40;;;;;;;15.20;8.05;;;22.30;99.90;;;;;;6701861;88;20178;-77
2021/07/09 13:11:42;;;;;;;14.40;7.37;;;22.00;99.90;;;;;;6699376;88;20315;-76
2021/07/09 13:21:48;;;;;;;14.10;7.57;;;22.10;99.90;;;;;;6699876;88;20230;-76
2021/07/09 13:31:53;;;;;;;8.32;5.57;;;22.10;99.90;;;;;;6700150;88;20205;-76
2021/07/09 13:41:53;;;;;;;9.75;5.68;;;22.10;99.90;;;;;;6699697;88;20698;-76
2021/07/09 13:51:54;;;;;;;6.37;5.00;;;22.30;99.90;;;;;;6701264;88;20258;-76
2021/07/09 14:01:55;;;;;;;8.53;4.87;;;22.40;99.90;;;;;;6705076;88;21102;-77
2021/07/09 14:11:55;;;;;;;8.13;4.87;;;22.70;99.90;;;;;;6700017;88;20260;-77
2021/07/09 14:21:56;;;;;;;5.62;4.30;;;23.10;99.90;;;;;;6700356;88;20186;-76
2021/07/09 14:31:57;;;;;;;6.97;3.85;;;23.20;99.90;;;;;;6699845;88;20188;-77
2021/07/09 14:41:57;;;;;;;6.65;4.47;;;23.50;99.90;;;;;;6704407;88;20209;-77
2021/07/09 14:51:58;;;;;;;6.70;3.90;;;23.70;99.90;;;;;;6699461;88;20253;-76
2021/07/09 15:01:58;;;;;;;6.65;3.97;;;24.40;99.90;;;;;;6709125;88;20190;-77
2021/07/09 15:11:59;;;;;;;4.95;3.72;;;25.30;99.90;;;;;;6704574;88;20611;-76
2021/07/09 15:22:00;;;;;;;4.65;2.85;;;25.70;99.90;;;;;;6700097;88;20236;-77
2021/07/09 15:32:00;;;;;;;5.82;3.40;;;26.20;99.20;;;;;;6699670;88;20686;-77
2021/07/09 15:42:01;;;;;;;4.00;3.08;;;26.60;97.80;;;;;;6710796;88;20173;-78
2021/07/09 15:52:03;;;;;;;6.45;3.20;;;26.70;97.30;;;;;;6703493;88;20228;-77
2021/07/09 16:02:04;;;;;;;4.33;3.37;;;26.70;98.50;;;;;;6705359;88;20232;-77
2021/07/09 16:12:05;;;;;;;4.90;3.77;;;27.10;97.10;;;;;;6705421;88;20503;-77
2021/07/09 16:22:07;;;;;;;5.57;4.67;;;26.30;96.80;;;;;;6706515;88;20660;-77
2021/07/09 16:32:09;;;;;;;8.33;5.00;;;24.40;99.90;;;;;;6705584;88;20496;-77
2021/07/09 16:42:10;;;;;;;8.65;5.60;;;24.50;99.90;;;;;;6698393;88;20731;-77
2021/07/09 16:52:12;;;;;;;10.57;5.50;;;24.70;99.90;;;;;;6705165;88;20309;-77
2021/07/09 17:02:12;;;;;;;8.43;5.32;;;25.20;99.90;;;;;;6705663;88;20189;-78
2021/07/09 17:12:14;;;;;;;10.50;6.25;;;24.80;99.90;;;;;;6716097;88;20222;-81
2021/07/09 17:22:15;;;;;;;11.20;7.05;;;23.90;99.90;;;;;;6717538;88;20638;-79
2021/07/09 17:32:16;;;;;;;8.70;6.10;;;23.50;99.90;;;;;;6713561;88;20260;-80
2021/07/09 17:42:16;;;;;;;11.33;6.17;;;23.10;99.90;;;;;;6711618;88;20201;-77
2021/07/09 17:52:17;;;;;;;10.83;6.03;;;22.80;99.90;;;;;;6709515;88;20332;-75
2021/07/09 18:02:17;;;;;;;10.13;7.35;;;22.50;99.90;;;;;;6697261;88;20194;-76
2021/07/09 18:12:20;;;;;;;11.15;7.32;;;22.20;99.90;;;;;;6697494;88;21103;-76
2021/07/09 18:22:20;;;;;;;7.72;6.18;;;21.90;99.90;;;;;;6697066;88;20346;-76
2021/07/09 18:32:21;;;;;;;5.80;4.68;;;21.30;99.90;;;;;;6700667;88;20303;-75
2021/07/09 18:42:21;;;;;;;11.57;5.75;;;20.80;99.90;;;;;;6696170;88;20227;-75
2021/07/09 18:52:22;;;;;;;9.63;6.78;;;19.70;99.90;;;;;;6700166;88;20233;-75
2021/07/09 19:02:22;;;;;;;10.13;5.85;;;19.30;99.90;;;;;;6701637;88;20204;-75
2021/07/09 19:12:23;;;;;;;9.77;6.22;;;18.60;99.90;;;;;;6694896;88;20249;-75
2021/07/09 19:22:24;;;;;;;5.90;4.35;;;18.30;99.90;;;;;;6696283;88;20276;-75
2021/07/09 19:32:26;;;;;;;6.90;4.70;;;18.00;99.90;;;;;;6694651;88;20256;-75
2021/07/09 19:42:26;;;;;;;7.32;4.80;;;17.70;99.90;;;;;;6701526;88;20208;-75
2021/07/09 19:52:27;;;;;;;8.82;5.57;;;17.70;99.90;;;;;;6712043;88;20257;-76
2021/07/09 20:02:27;;;;;;;5.80;4.47;;;17.70;99.90;;;;;;6698642;88;20283;-75
2021/07/09 20:12:29;;;;;;;9.52;5.62;;;17.90;99.90;;;;;;6699517;88;20630;-75
2021/07/09 20:22:30;;;;;;;8.23;6.60;;;17.80;99.90;;;;;;6697298;88;20230;-76
2021/07/09 20:32:30;;;;;;;12.37;7.37;;;17.70;99.90;;;;;;6698327;88;20647;-76
2021/07/09 20:42:31;;;;;;;10.70;6.22;;;17.50;99.90;;;;;;6698834;88;20209;-76
2021/07/09 20:52:31;;;;;;;9.07;6.43;;;17.50;99.90;;;;;;6698165;88;20201;-76
2021/07/09 21:02:32;;;;;;;8.63;6.20;;;17.60;99.90;;;;;;6697207;88;20186;-75
2021/07/09 21:12:32;;;;;;;7.95;6.45;;;17.50;99.90;;;;;;6700644;88;20331;-77
2021/07/09 21:22:33;;;;;;;8.40;6.55;;;17.50;99.90;;;;;;6699507;88;20201;-76
2021/07/09 21:32:34;;;;;;;8.63;6.70;;;17.50;99.90;;;;;;6694617;88;20338;-76
2021/07/09 21:42:36;;;;;;;8.77;6.43;;;17.50;99.90;;;;;;6695384;88;20234;-77
2021/07/09 21:52:37;;;;;;;9.13;6.47;;;17.40;99.90;;;;;;6695846;88;20183;-76
2021/07/09 22:02:38;;;;;;;10.93;7.22;;;17.50;99.90;;;;;;6697521;88;20195;-76
2021/07/09 22:12:40;;;;;;;11.98;7.15;;;17.50;99.90;;;;;;6699176;88;20648;-77
2021/07/09 22:22:41;;;;;;;10.43;7.32;;;17.40;99.90;;;;;;6702808;88;20262;-77
2021/07/09 22:32:41;;;;;;;10.43;6.72;;;17.40;99.90;;;;;;6698887;88;20202;-77
2021/07/09 22:42:43;;;;;;;9.27;7.25;;;17.50;99.90;;;;;;6698884;88;20197;-77
2021/07/09 22:52:43;;;;;;;8.57;6.75;;;17.50;99.90;;;;;;6696879;88;20191;-77
2021/07/09 23:02:44;;;;;;;11.63;6.43;;;17.50;99.90;;;;;;6697290;88;20343;-77
2021/07/09 23:12:44;;;;;;;9.48;6.25;;;17.70;99.90;;;;;;6697261;88;20227;-76
2021/07/09 23:22:45;;;;;;;8.27;6.20;;;17.50;99.90;;;;;;6696618;88;20637;-77
2021/07/09 23:32:45;;;;;;;8.13;6.50;;;17.40;99.90;;;;;;6696589;88;20174;-77
2021/07/09 23:42:49;;;;;;;10.80;6.22;;;17.50;99.90;;;;;;6696502;88;20203;-77
2021/07/09 23:52:49;;;;;;;9.30;6.60;;;17.50;99.90;;;;;;6696292;88;20404;-77
